Wetterdaten: Woche 30.05.16 - 05.06.16 (KW22)
Datum Zeit Temperatur Luftfeuchte Luftdruck Niederschlag Windrichtung Sonnenschein Solar Wind
30.05.2016 00:00 13,0 C 98 % 1003,6 hPa 1,6 l/m W-SW 0,00 h 0 W/m 18,0 km/h (3 Bft)
30.05.2016 01:00 12,8 C 99 % 1003,6 hPa 2,2 l/m W-SW 0,00 h 0 W/m 15,6 km/h (3 Bft)
30.05.2016 02:00 12,8 C 99 % 1003,3 hPa 0,6 l/m SW 0,00 h 0 W/m 13,7 km/h (3 Bft)
30.05.2016 03:00 12,7 C 99 % 1003,1 hPa 0,8 l/m W-SW 0,00 h 0 W/m 17,8 km/h (3 Bft)
30.05.2016 04:00 12,4 C 99 % 1003,2 hPa 2,0 l/m W-SW 0,00 h 0 W/m 18,9 km/h (3 Bft)
30.05.2016 05:00 12,2 C 99 % 1003,4 hPa 2,0 l/m W-SW 0,00 h 5 W/m 18,2 km/h (3 Bft)
30.05.2016 06:00 12,1 C 99 % 1003,7 hPa 0,8 l/m SW 0,00 h 15 W/m 18,1 km/h (3 Bft)
30.05.2016 07:00 12,2 C 99 % 1003,7 hPa 0,4 l/m SW 0,00 h 39 W/m 16,4 km/h (3 Bft)
30.05.2016 08:00 12,4 C 99 % 1004,0 hPa 0,0 l/m W-SW 0,00 h 93 W/m 18,8 km/h (3 Bft)
30.05.2016 09:00 13,3 C 97 % 1004,0 hPa 0,0 l/m W-SW 0,08 h 254 W/m 23,7 km/h (4 Bft)
30.05.2016 10:00 14,1 C 93 % 1004,0 hPa 0,0 l/m W-SW 0,00 h 238 W/m 29,9 km/h (5 Bft)
30.05.2016 11:00 14,6 C 89 % 1004,4 hPa 0,0 l/m W-SW 0,00 h 274 W/m 33,9 km/h (5 Bft)
30.05.2016 12:00 15,7 C 85 % 1004,5 hPa 0,0 l/m W-SW 0,25 h 354 W/m 28,4 km/h (4 Bft)
30.05.2016 13:00 16,5 C 82 % 1004,6 hPa 0,0 l/m W-SW 0,25 h 401 W/m 22,8 km/h (4 Bft)
30.05.2016 14:00 17,2 C 79 % 1004,7 hPa 0,2 l/m W-SW 0,17 h 372 W/m 22,1 km/h (4 Bft)
30.05.2016 15:00 17,7 C 75 % 1004,7 hPa 0,0 l/m W-SW 0,58 h 579 W/m 27,1 km/h (4 Bft)
30.05.2016 16:00 18,0 C 71 % 1004,9 hPa 0,0 l/m W 0,50 h 520 W/m 28,8 km/h (5 Bft)
30.05.2016 17:00 17,9 C 70 % 1005,2 hPa 0,0 l/m W 0,42 h 341 W/m 21,4 km/h (4 Bft)
30.05.2016 18:00 16,9 C 74 % 1005,4 hPa 0,0 l/m W 0,17 h 170 W/m 17,2 km/h (3 Bft)
30.05.2016 19:00 16,2 C 75 % 1005,9 hPa 0,0 l/m W-SW 0,08 h 69 W/m 15,8 km/h (3 Bft)
30.05.2016 20:00 15,6 C 79 % 1006,2 hPa 0,0 l/m W-SW 0,00 h 25 W/m 7,5 km/h (2 Bft)
30.05.2016 21:00 14,5 C 83 % 1006,6 hPa 0,0 l/m W-SW 0,00 h 11 W/m 5,6 km/h (1 Bft)
30.05.2016 22:00 13,1 C 87 % 1007,1 hPa 0,0 l/m W-SW 0,00 h 0 W/m 2,9 km/h (1 Bft)
30.05.2016 23:00 12,4 C 88 % 1007,1 hPa 0,0 l/m W-SW 0,00 h 0 W/m 7,9 km/h (2 Bft)
31.05.2016 00:00 12,0 C 89 % 1007,0 hPa 0,0 l/m W-SW 0,00 h 0 W/m 7,5 km/h (2 Bft)
31.05.2016 01:00 11,5 C 91 % 1007,1 hPa 0,0 l/m N 0,00 h 0 W/m 2,3 km/h (1 Bft)
31.05.2016 02:00 10,2 C 95 % 1007,0 hPa 0,0 l/m N 0,00 h 0 W/m 0,0 km/h (0 Bft)
31.05.2016 03:00 9,4 C 96 % 1007,2 hPa 0,0 l/m N 0,00 h 0 W/m 0,0 km/h (0 Bft)
31.05.2016 04:00 8,9 C 97 % 1007,5 hPa 0,0 l/m N 0,00 h 0 W/m 0,0 km/h (0 Bft)
31.05.2016 05:00 8,9 C 98 % 1007,8 hPa 0,0 l/m N 0,00 h 7 W/m 0,0 km/h (0 Bft)
31.05.2016 06:00 9,7 C 98 % 1008,1 hPa 0,0 l/m N 0,00 h 39 W/m 0,0 km/h (0 Bft)
31.05.2016 07:00 11,4 C 96 % 1008,3 hPa 0,0 l/m W-SW 0,08 h 114 W/m 0,5 km/h (0 Bft)
31.05.2016 08:00 13,2 C 91 % 1008,6 hPa 0,0 l/m SW 0,00 h 132 W/m 11,0 km/h (2 Bft)
31.05.2016 09:00 14,2 C 84 % 1009,1 hPa 0,0 l/m SW 0,00 h 167 W/m 13,6 km/h (3 Bft)
31.05.2016 10:00 14,9 C 79 % 1009,2 hPa 0,0 l/m W-SW 0,00 h 229 W/m 16,6 km/h (3 Bft)
31.05.2016 11:00 15,9 C 76 % 1009,4 hPa 0,0 l/m W-SW 0,08 h 372 W/m 17,8 km/h (3 Bft)
31.05.2016 12:00 17,4 C 69 % 1009,6 hPa 0,0 l/m W-SW 0,42 h 466 W/m 16,8 km/h (3 Bft)
31.05.2016 13:00 18,7 C 66 % 1009,3 hPa 0,0 l/m SW 0,83 h 818 W/m 13,4 km/h (3 Bft)
31.05.2016 14:00 19,3 C 63 % 1009,0 hPa 0,0 l/m W 0,67 h 589 W/m 10,2 km/h (2 Bft)
31.05.2016 15:00 19,0 C 62 % 1008,8 hPa 0,0 l/m W-SW 0,08 h 272 W/m 5,1 km/h (1 Bft)
31.05.2016 16:00 19,6 C 61 % 1008,7 hPa 0,0 l/m W-SW 0,50 h 561 W/m 4,0 km/h (1 Bft)
31.05.2016 17:00 19,1 C 63 % 1008,6 hPa 0,0 l/m SO 0,00 h 120 W/m 5,5 km/h (1 Bft)
31.05.2016 18:00 18,2 C 69 % 1008,6 hPa 0,0 l/m SO 0,00 h 47 W/m 5,1 km/h (1 Bft)
31.05.2016 19:00 15,3 C 85 % 1009,2 hPa 4,6 l/m W-NW 0,00 h 11 W/m 10,2 km/h (2 Bft)
31.05.2016 20:00 13,5 C 95 % 1010,3 hPa 2,8 l/m N-NO 0,00 h 6 W/m 4,1 km/h (1 Bft)
31.05.2016 21:00 13,0 C 96 % 1011,0 hPa 3,8 l/m NO 0,00 h 0 W/m 5,2 km/h (1 Bft)
31.05.2016 22:00 12,3 C 97 % 1011,3 hPa 2,8 l/m O-SO 0,00 h 0 W/m 4,8 km/h (1 Bft)
31.05.2016 23:00 12,2 C 98 % 1011,6 hPa 2,2 l/m SO 0,00 h 0 W/m 4,8 km/h (1 Bft)
01.06.2016 00:00 12,2 C 98 % 1011,8 hPa 1,8 l/m SW 0,00 h 0 W/m 4,7 km/h (1 Bft)
01.06.2016 01:00 12,2 C 98 % 1012,1 hPa 2,4 l/m W-SW 0,00 h 0 W/m 2,8 km/h (1 Bft)
01.06.2016 02:00 11,7 C 98 % 1012,0 hPa 0,6 l/m SW 0,00 h 0 W/m 5,3 km/h (1 Bft)
01.06.2016 03:00 11,6 C 98 % 1012,0 hPa 0,2 l/m N 0,00 h 0 W/m 0,0 km/h (0 Bft)
01.06.2016 04:00 11,4 C 98 % 1011,7 hPa 0,0 l/m SW 0,00 h 0 W/m 2,0 km/h (1 Bft)
01.06.2016 05:00 11,5 C 98 % 1011,8 hPa 0,0 l/m SW 0,00 h 5 W/m 2,4 km/h (1 Bft)
01.06.2016 06:00 11,8 C 99 % 1012,0 hPa 0,2 l/m SW 0,00 h 8 W/m 0,7 km/h (0 Bft)
01.06.2016 07:00 12,0 C 99 % 1012,1 hPa 0,0 l/m N 0,00 h 43 W/m 0,8 km/h (0 Bft)
01.06.2016 08:00 12,7 C 99 % 1012,2 hPa 0,0 l/m SW 0,00 h 111 W/m 6,1 km/h (2 Bft)
01.06.2016 09:00 13,5 C 96 % 1012,1 hPa 0,0 l/m SW 0,00 h 170 W/m 3,3 km/h (1 Bft)
01.06.2016 10:00 14,6 C 93 % 1012,1 hPa 0,0 l/m SW 0,00 h 269 W/m 8,7 km/h (2 Bft)
01.06.2016 11:00 15,8 C 88 % 1012,0 hPa 0,0 l/m SW 0,33 h 374 W/m 11,2 km/h (2 Bft)
01.06.2016 12:00 17,6 C 81 % 1011,6 hPa 0,0 l/m W-SW 0,75 h 757 W/m 15,3 km/h (3 Bft)
01.06.2016 13:00 17,3 C 78 % 1011,3 hPa 0,0 l/m W-SW 0,00 h 286 W/m 11,4 km/h (2 Bft)
01.06.2016 14:00 18,5 C 74 % 1010,9 hPa 0,0 l/m W 0,50 h 594 W/m 13,7 km/h (3 Bft)
01.06.2016 15:00 18,8 C 71 % 1010,4 hPa 0,0 l/m NW 0,33 h 490 W/m 14,1 km/h (3 Bft)
01.06.2016 16:00 19,8 C 65 % 1009,9 hPa 0,0 l/m W-NW 0,92 h 601 W/m 12,5 km/h (3 Bft)
01.06.2016 17:00 18,8 C 69 % 1010,0 hPa 0,0 l/m N 0,00 h 227 W/m 13,7 km/h (3 Bft)
01.06.2016 18:00 17,7 C 74 % 1009,8 hPa 0,0 l/m N-NW 0,00 h 97 W/m 10,5 km/h (2 Bft)
01.06.2016 19:00 17,0 C 75 % 1010,0 hPa 0,0 l/m N-NW 0,00 h 35 W/m 6,4 km/h (2 Bft)
01.06.2016 20:00 16,3 C 80 % 1010,2 hPa 0,0 l/m N-NW 0,00 h 9 W/m 2,1 km/h (1 Bft)
01.06.2016 21:00 15,4 C 88 % 1010,4 hPa 0,0 l/m N 0,00 h 0 W/m 0,0 km/h (0 Bft)
01.06.2016 22:00 14,6 C 92 % 1010,4 hPa 0,0 l/m N 0,00 h 0 W/m 0,0 km/h (0 Bft)
01.06.2016 23:00 14,6 C 93 % 1010,2 hPa 0,0 l/m N 0,00 h 0 W/m 1,2 km/h (1 Bft)
02.06.2016 00:00 14,1 C 93 % 1009,9 hPa 0,0 l/m W-SW 0,00 h 0 W/m 8,3 km/h (2 Bft)
02.06.2016 01:00 13,7 C 93 % 1009,5 hPa 0,0 l/m SW 0,00 h 0 W/m 9,1 km/h (2 Bft)
02.06.2016 02:00 13,3 C 94 % 1009,2 hPa 0,2 l/m SW 0,00 h 0 W/m 9,0 km/h (2 Bft)
02.06.2016 03:00 13,1 C 97 % 1008,9 hPa 1,2 l/m N 0,00 h 0 W/m 1,6 km/h (1 Bft)
02.06.2016 04:00 13,1 C 98 % 1008,8 hPa 1,6 l/m SW 0,00 h 0 W/m 3,1 km/h (1 Bft)
02.06.2016 05:00 12,8 C 99 % 1008,6 hPa 0,6 l/m SW 0,00 h 6 W/m 7,8 km/h (2 Bft)
02.06.2016 06:00 12,7 C 99 % 1008,6 hPa 0,2 l/m S-SW 0,00 h 13 W/m 4,7 km/h (1 Bft)
02.06.2016 07:00 12,8 C 99 % 1008,7 hPa 0,0 l/m S-SW 0,00 h 54 W/m 8,1 km/h (2 Bft)
02.06.2016 08:00 13,3 C 99 % 1008,9 hPa 0,0 l/m S-SW 0,00 h 125 W/m 12,0 km/h (2 Bft)
02.06.2016 09:00 14,5 C 95 % 1008,9 hPa 0,0 l/m SW 0,08 h 231 W/m 13,7 km/h (3 Bft)
02.06.2016 10:00 14,8 C 93 % 1008,8 hPa 0,0 l/m SW 0,25 h 312 W/m 14,2 km/h (3 Bft)
02.06.2016 11:00 15,3 C 90 % 1008,7 hPa 0,0 l/m S-SW 0,08 h 161 W/m 17,3 km/h (3 Bft)
02.06.2016 12:00 14,6 C 90 % 1008,6 hPa 0,4 l/m W-SW 0,00 h 124 W/m 10,1 km/h (2 Bft)
02.06.2016 13:00 16,7 C 86 % 1008,3 hPa 0,0 l/m SW 0,58 h 644 W/m 9,4 km/h (2 Bft)
02.06.2016 14:00 17,2 C 79 % 1008,0 hPa 0,0 l/m SW 0,17 h 267 W/m 10,2 km/h (2 Bft)
02.06.2016 15:00 16,8 C 77 % 1007,9 hPa 0,0 l/m W-NW 0,42 h 467 W/m 8,3 km/h (2 Bft)
02.06.2016 16:00 19,1 C 67 % 1007,4 hPa 0,0 l/m W-SW 0,58 h 581 W/m 10,7 km/h (2 Bft)
02.06.2016 17:00 18,4 C 68 % 1007,3 hPa 0,0 l/m NW 0,00 h 96 W/m 8,6 km/h (2 Bft)
02.06.2016 18:00 17,4 C 75 % 1007,5 hPa 0,0 l/m NW 0,25 h 128 W/m 9,0 km/h (2 Bft)
02.06.2016 19:00 15,9 C 81 % 1008,0 hPa 0,0 l/m N 0,00 h 17 W/m 6,3 km/h (2 Bft)
02.06.2016 20:00 14,9 C 89 % 1008,3 hPa 0,0 l/m N 0,00 h 13 W/m 0,0 km/h (0 Bft)
02.06.2016 21:00 14,4 C 91 % 1008,6 hPa 0,0 l/m N 0,00 h 0 W/m 0,1 km/h (0 Bft)
02.06.2016 22:00 13,9 C 93 % 1008,9 hPa 0,4 l/m N-NW 0,00 h 0 W/m 4,8 km/h (1 Bft)
02.06.2016 23:00 13,5 C 95 % 1008,9 hPa 0,0 l/m N 0,00 h 0 W/m 0,0 km/h (0 Bft)
03.06.2016 00:00 13,2 C 97 % 1009,0 hPa 0,0 l/m N 0,00 h 0 W/m 0,0 km/h (0 Bft)
03.06.2016 01:00 12,9 C 98 % 1008,8 hPa 0,0 l/m N-NW 0,00 h 0 W/m 0,5 km/h (0 Bft)
03.06.2016 02:00 12,7 C 98 % 1008,6 hPa 0,0 l/m N 0,00 h 0 W/m 0,0 km/h (0 Bft)
03.06.2016 03:00 12,4 C 99 % 1008,5 hPa 0,0 l/m N 0,00 h 0 W/m 0,0 km/h (0 Bft)
03.06.2016 04:00 12,2 C 99 % 1008,3 hPa 0,0 l/m N 0,00 h 0 W/m 0,0 km/h (0 Bft)
03.06.2016 05:00 12,1 C 99 % 1008,4 hPa 0,0 l/m N 0,00 h 9 W/m 0,0 km/h (0 Bft)
03.06.2016 06:00 12,3 C 99 % 1008,6 hPa 0,2 l/m N 0,00 h 29 W/m 0,0 km/h (0 Bft)
03.06.2016 07:00 12,8 C 99 % 1008,8 hPa 0,2 l/m N 0,00 h 73 W/m 0,0 km/h (0 Bft)
03.06.2016 08:00 13,4 C 98 % 1009,0 hPa 0,0 l/m N 0,00 h 101 W/m 0,3 km/h (0 Bft)
03.06.2016 09:00 14,4 C 96 % 1009,0 hPa 0,0 l/m N-NW 0,17 h 273 W/m 4,4 km/h (1 Bft)
03.06.2016 10:00 16,1 C 89 % 1008,6 hPa 0,0 l/m W 0,50 h 457 W/m 6,3 km/h (2 Bft)
03.06.2016 11:00 15,8 C 87 % 1008,5 hPa 0,2 l/m W 0,00 h 209 W/m 7,1 km/h (2 Bft)
03.06.2016 12:00 16,7 C 83 % 1008,4 hPa 0,0 l/m W 0,17 h 251 W/m 3,9 km/h (1 Bft)
03.06.2016 13:00 17,1 C 84 % 1008,2 hPa 0,0 l/m W 0,17 h 375 W/m 2,8 km/h (1 Bft)
03.06.2016 14:00 18,6 C 78 % 1007,6 hPa 0,0 l/m W-NW 0,50 h 520 W/m 6,6 km/h (2 Bft)
03.06.2016 15:00 19,8 C 72 % 1007,3 hPa 0,0 l/m W-NW 0,50 h 721 W/m 10,2 km/h (2 Bft)
03.06.2016 16:00 19,3 C 72 % 1007,2 hPa 0,0 l/m NW 0,00 h 217 W/m 7,5 km/h (2 Bft)
03.06.2016 17:00 18,0 C 81 % 1007,3 hPa 0,2 l/m NW 0,00 h 96 W/m 4,8 km/h (1 Bft)
03.06.2016 18:00 16,0 C 89 % 1007,5 hPa 1,6 l/m O-NO 0,00 h 57 W/m 7,6 km/h (2 Bft)
03.06.2016 19:00 15,1 C 93 % 1008,2 hPa 1,2 l/m SO 0,00 h 20 W/m 6,4 km/h (2 Bft)
03.06.2016 20:00 13,8 C 96 % 1008,5 hPa 3,6 l/m N 0,00 h 6 W/m 0,8 km/h (0 Bft)
03.06.2016 21:00 13,6 C 98 % 1008,5 hPa 0,4 l/m N 0,00 h 5 W/m 0,0 km/h (0 Bft)
03.06.2016 22:00 13,2 C 98 % 1008,6 hPa 0,0 l/m N 0,00 h 0 W/m 0,0 km/h (0 Bft)
03.06.2016 23:00 13,2 C 99 % 1009,0 hPa 0,0 l/m S-SO 0,00 h 0 W/m 2,3 km/h (1 Bft)
04.06.2016 00:00 13,2 C 99 % 1008,9 hPa 0,0 l/m N 0,00 h 0 W/m 0,4 km/h (0 Bft)
04.06.2016 01:00 13,2 C 99 % 1008,9 hPa 0,0 l/m S-SO 0,00 h 0 W/m 3,9 km/h (1 Bft)
04.06.2016 02:00 13,3 C 99 % 1008,8 hPa 0,0 l/m S-SO 0,00 h 0 W/m 1,3 km/h (1 Bft)
04.06.2016 03:00 13,4 C 99 % 1008,8 hPa 0,0 l/m S-SO 0,00 h 0 W/m 1,7 km/h (1 Bft)
04.06.2016 04:00 13,5 C 100 % 1008,8 hPa 1,0 l/m S-SO 0,00 h 0 W/m 2,8 km/h (1 Bft)
04.06.2016 05:00 13,4 C 100 % 1008,8 hPa 0,0 l/m S-SO 0,00 h 5 W/m 4,3 km/h (1 Bft)
04.06.2016 06:00 13,5 C 100 % 1009,0 hPa 0,2 l/m S-SO 0,00 h 20 W/m 2,8 km/h (1 Bft)
04.06.2016 07:00 13,7 C 100 % 1009,1 hPa 0,0 l/m S-SO 0,00 h 39 W/m 5,9 km/h (2 Bft)
04.06.2016 08:00 13,8 C 100 % 1009,5 hPa 0,2 l/m S-SW 0,00 h 81 W/m 9,4 km/h (2 Bft)
04.06.2016 09:00 14,5 C 99 % 1009,8 hPa 0,0 l/m W-SW 0,00 h 201 W/m 11,0 km/h (2 Bft)
04.06.2016 10:00 15,7 C 93 % 1009,9 hPa 0,0 l/m W-SW 0,25 h 354 W/m 11,2 km/h (2 Bft)
04.06.2016 11:00 16,1 C 92 % 1010,0 hPa 0,0 l/m W-SW 0,08 h 306 W/m 8,2 km/h (2 Bft)
04.06.2016 12:00 17,7 C 86 % 1009,9 hPa 0,0 l/m SW 0,33 h 457 W/m 13,0 km/h (3 Bft)
04.06.2016 13:00 18,0 C 83 % 1009,9 hPa 0,0 l/m SW 0,17 h 467 W/m 12,5 km/h (3 Bft)
04.06.2016 14:00 19,2 C 78 % 1009,5 hPa 0,0 l/m SW 0,33 h 449 W/m 12,3 km/h (3 Bft)
04.06.2016 15:00 18,8 C 77 % 1009,4 hPa 0,0 l/m W-NW 0,17 h 314 W/m 7,5 km/h (2 Bft)
04.06.2016 16:00 17,1 C 86 % 1009,5 hPa 1,0 l/m O-NO 0,00 h 95 W/m 12,1 km/h (2 Bft)
04.06.2016 17:00 15,7 C 92 % 1009,8 hPa 0,0 l/m N-NO 0,00 h 137 W/m 5,2 km/h (1 Bft)
04.06.2016 18:00 16,0 C 92 % 1010,0 hPa 0,4 l/m S 0,00 h 132 W/m 4,1 km/h (1 Bft)
04.06.2016 19:00 15,5 C 94 % 1010,0 hPa 0,0 l/m S-SO 0,00 h 65 W/m 2,3 km/h (1 Bft)
04.06.2016 20:00 15,2 C 96 % 1010,5 hPa 0,0 l/m S-SO 0,00 h 21 W/m 1,3 km/h (1 Bft)
04.06.2016 21:00 15,0 C 96 % 1011,4 hPa 0,0 l/m S-SO 0,00 h 5 W/m 6,0 km/h (2 Bft)
04.06.2016 22:00 14,6 C 96 % 1012,2 hPa 0,0 l/m SW 0,00 h 0 W/m 5,2 km/h (1 Bft)
04.06.2016 23:00 14,2 C 96 % 1012,4 hPa 0,0 l/m SW 0,00 h 0 W/m 6,9 km/h (2 Bft)
05.06.2016 00:00 13,8 C 97 % 1012,6 hPa 0,0 l/m SW 0,00 h 0 W/m 2,0 km/h (1 Bft)
05.06.2016 01:00 13,3 C 97 % 1012,7 hPa 0,0 l/m SW 0,00 h 0 W/m 3,6 km/h (1 Bft)
05.06.2016 02:00 13,3 C 98 % 1012,6 hPa 0,0 l/m SW 0,00 h 0 W/m 3,9 km/h (1 Bft)
05.06.2016 03:00 13,1 C 98 % 1012,5 hPa 0,0 l/m N 0,00 h 0 W/m 0,9 km/h (0 Bft)
05.06.2016 04:00 13,1 C 99 % 1012,7 hPa 0,0 l/m SW 0,00 h 0 W/m 0,9 km/h (0 Bft)
05.06.2016 05:00 13,2 C 99 % 1012,7 hPa 0,0 l/m N 0,00 h 9 W/m 1,9 km/h (1 Bft)
05.06.2016 06:00 13,6 C 99 % 1012,9 hPa 0,0 l/m SW 0,00 h 53 W/m 5,5 km/h (1 Bft)
05.06.2016 07:00 14,1 C 98 % 1013,3 hPa 0,0 l/m SW 0,00 h 87 W/m 3,3 km/h (1 Bft)
05.06.2016 08:00 14,9 C 97 % 1013,6 hPa 0,0 l/m SW 0,00 h 90 W/m 7,4 km/h (2 Bft)
05.06.2016 09:00 14,8 C 96 % 1014,0 hPa 15,6 l/m SW 0,00 h 76 W/m 10,3 km/h (2 Bft)
05.06.2016 10:00 12,6 C 98 % 1014,7 hPa 21,4 l/m O 0,00 h 31 W/m 2,3 km/h (1 Bft)
05.06.2016 11:00 12,8 C 99 % 1014,9 hPa 4,2 l/m N 0,00 h 86 W/m 0,0 km/h (0 Bft)
05.06.2016 12:00 14,2 C 98 % 1015,3 hPa 0,2 l/m O 0,00 h 235 W/m 1,7 km/h (1 Bft)
05.06.2016 13:00 15,0 C 96 % 1015,0 hPa 0,2 l/m N 0,00 h 143 W/m 0,8 km/h (0 Bft)
05.06.2016 14:00 15,9 C 95 % 1014,4 hPa 0,0 l/m O 0,42 h 582 W/m 1,9 km/h (1 Bft)
05.06.2016 15:00 17,9 C 86 % 1014,2 hPa 0,0 l/m O-NO 0,75 h 793 W/m 7,2 km/h (2 Bft)
05.06.2016 16:00 18,8 C 77 % 1014,1 hPa 0,2 l/m N-NW 0,67 h 550 W/m 5,7 km/h (1 Bft)
05.06.2016 17:00 18,6 C 79 % 1013,8 hPa 0,0 l/m N-NW 0,17 h 176 W/m 3,1 km/h (1 Bft)
05.06.2016 18:00 18,3 C 82 % 1014,1 hPa 0,0 l/m N 0,08 h 115 W/m 7,0 km/h (2 Bft)
05.06.2016 19:00 16,8 C 86 % 1014,4 hPa 0,0 l/m N 0,00 h 76 W/m 8,6 km/h (2 Bft)
05.06.2016 20:00 16,0 C 90 % 1014,8 hPa 0,0 l/m N 0,00 h 12 W/m 1,7 km/h (1 Bft)
05.06.2016 21:00 15,0 C 95 % 1015,4 hPa 0,0 l/m N 0,00 h 5 W/m 0,3 km/h (0 Bft)
05.06.2016 22:00 14,1 C 97 % 1016,0 hPa 0,0 l/m N 0,00 h 0 W/m 1,1 km/h (0 Bft)
05.06.2016 23:00 13,6 C 98 % 1016,4 hPa 0,0 l/m N 0,00 h 0 W/m 0,0 km/h (0 Bft)
Min-Datum _ 31.05.16 31.05.16 30.05.16 - - - - 30.05.16
_ Min-Zeit 05:05 16:50 03:25 - - - - 20:35
Minimum _ 8,7 C 57 % 1002,9 hPa - - - - 0,0 km/h (0 Bft)
Max-Datum _ 03.06.16 04.06.16 05.06.16 05.06.16 - 30.05.16 04.06.16 30.05.16
_ Max-Zeit 15:45 04:20 23:45 10:00 - 09:40 13:55 11:05
Maximum _ 21,3 C 100 % 1016,6 hPa 21,4 l/m - 0,08 h 1121 W/m 37,0 km/h
W-SW (5 Bft)
Durchschnitt _ 14,7 C 90 % 1009,3 hPa #88,8 l/m SW #15:50 h 213 W/m 7,4 km/h (2 Bft)